Time;durP1;ratioP1;P1;durP2;ratioP2;P2;SDS_P1;SDS_P2;PMS_P1;PMS_P2;Temp;Humidity;BMP_temperature;BMP_pressure;BME280_temperature;BME280_humidity;BME280_pressure;Samples;Min_cycle;Max_cycle;Signal;HPM_P1;HPM_P2
2023/06/02 00:00:39;;;;;;;7.57;2.47;;;;;;;-145.69;100.00;52012.69;5074306;28;20652;-86
2023/06/02 00:03:10;;;;;;;6.40;2.47;;;;;;;-145.69;100.00;51992.88;5074482;28;20226;-85
2023/06/02 00:05:38;;;;;;;3.77;2.47;;;;;;;-145.69;100.00;52034.47;5074412;28;20688;-86
2023/06/02 00:08:07;;;;;;;4.70;2.30;;;;;;;-145.69;100.00;52032.47;5073772;28;20219;-86
2023/06/02 00:10:33;;;;;;;5.27;2.67;;;;;;;-145.69;100.00;52026.53;5074668;28;20199;-87
2023/06/02 00:13:05;;;;;;;4.97;2.30;;;;;;;-145.69;100.00;52048.31;5062187;28;20187;-87
2023/06/02 00:15:37;;;;;;;8.10;2.90;;;;;;;-145.69;100.00;52026.53;5054284;28;20207;-86
2023/06/02 00:18:04;;;;;;;8.00;3.00;;;;;;;-145.69;100.00;52018.63;5054285;28;20239;-86
2023/06/02 00:20:31;;;;;;;6.30;2.70;;;;;;;-145.69;100.00;52046.34;5054060;28;20286;-86
2023/06/02 00:22:58;;;;;;;7.10;2.90;;;;;;;-145.69;100.00;52024.56;5054410;28;20202;-87
2023/06/02 00:25:40;;;;;;;7.47;2.57;;;;;;;-145.69;100.00;52030.50;5054706;28;20202;-85
2023/06/02 00:28:13;;;;;;;5.60;2.73;;;;;;;-145.69;100.00;52044.38;5054784;28;20577;-86
2023/06/02 00:30:43;;;;;;;7.13;2.60;;;;;;;-145.69;100.00;52036.44;5054161;28;20202;-86
2023/06/02 00:33:10;;;;;;;5.40;2.97;;;;;;;-145.69;100.00;52052.28;5065711;28;20195;-86
2023/06/02 00:35:37;;;;;;;11.43;3.00;;;;;;;-145.69;100.00;52000.81;5072808;28;20202;-87
2023/06/02 00:38:07;;;;;;;7.77;2.77;;;;;;;-145.69;100.00;52020.59;5073737;28;20838;-87
2023/06/02 00:40:36;;;;;;;6.57;2.83;;;;;;;-145.69;100.00;52036.44;5052276;28;20596;-87
2023/06/02 00:43:03;;;;;;;3.30;2.40;;;;;;;-145.69;100.00;52012.69;5038302;28;20226;-86
2023/06/02 00:45:34;;;;;;;5.63;2.60;;;;;;;-145.69;100.00;52062.19;5053679;28;20209;-86
2023/06/02 00:48:03;;;;;;;5.47;2.67;;;;;;;-145.69;100.00;52048.31;5054128;28;20262;-86
2023/06/02 00:50:31;;;;;;;5.53;2.43;;;;;;;-145.69;100.00;52048.31;5053580;28;20262;-86
2023/06/02 00:53:08;;;;;;;7.83;2.77;;;;;;;-145.69;100.00;52008.72;5053838;28;20210;-86
2023/06/02 00:55:35;;;;;;;7.80;3.50;;;;;;;-145.69;100.00;52054.25;5054047;28;20561;-86
2023/06/02 00:58:04;;;;;;;5.53;2.93;;;;;;;-145.69;100.00;52056.25;5033922;28;20204;-87
2023/06/02 01:00:36;;;;;;;8.60;3.13;;;;;;;-145.69;100.00;52091.88;5033742;28;20199;-87
2023/06/02 01:03:08;;;;;;;5.23;2.90;;;;;;;-145.69;100.00;52032.47;5049260;28;20206;-86
2023/06/02 01:05:36;;;;;;;8.83;2.67;;;;;;;-145.69;100.00;52036.44;5033722;28;20211;-87
2023/06/02 01:08:07;;;;;;;4.77;3.00;;;;;;;-145.69;100.00;52060.22;5043364;28;20302;-86
2023/06/02 01:10:37;;;;;;;6.67;3.43;;;;;;;-145.69;100.00;52085.94;5070908;28;20836;-87
2023/06/02 01:13:03;;;;;;;6.57;2.93;;;;;;;-145.69;100.00;52052.28;5073426;28;20449;-86
2023/06/02 01:15:33;;;;;;;8.60;3.47;;;;;;;-145.69;100.00;52030.50;5073240;28;20205;-85
2023/06/02 01:18:08;;;;;;;7.07;3.20;;;;;;;-145.69;100.00;52040.41;5073082;28;20683;-86
2023/06/02 01:20:49;;;;;;;7.13;3.20;;;;;;;-145.69;100.00;52054.25;5073084;28;20281;-86
2023/06/02 01:23:21;;;;;;;9.07;3.73;;;;;;;-145.69;100.00;52028.53;5073388;28;20220;-85
2023/06/02 01:25:53;;;;;;;7.67;3.43;;;;;;;-145.69;100.00;52064.16;5073170;28;20661;-86
2023/06/02 01:28:21;;;;;;;5.60;3.33;;;;;;;-145.69;100.00;52030.50;5073231;28;20234;-86
2023/06/02 01:30:49;;;;;;;8.27;3.40;;;;;;;-145.69;100.00;52050.31;5067887;28;20230;-87
2023/06/02 01:33:20;;;;;;;13.70;3.97;;;;;;;-145.69;100.00;52036.44;5053325;28;20214;-86
2023/06/02 01:35:59;;;;;;;10.80;3.50;;;;;;;-145.69;100.00;52034.47;5053173;28;20223;-87
2023/06/02 01:38:28;;;;;;;6.80;3.27;;;;;;;-145.69;100.00;52062.19;5053024;28;20670;-86
2023/06/02 01:41:00;;;;;;;11.47;3.67;;;;;;;-145.69;100.00;52038.44;5052107;28;20203;-86
2023/06/02 01:43:41;;;;;;;7.23;3.47;;;;;;;-145.69;100.00;52076.03;5056753;28;20230;-86
2023/06/02 01:46:08;;;;;;;8.80;3.80;;;;;;;-145.69;100.00;52072.09;5052243;28;20211;-84
2023/06/02 01:48:37;;;;;;;13.00;3.80;;;;;;;-145.69;100.00;52099.81;5053019;28;20765;-88
2023/06/02 01:51:03;;;;;;;6.43;3.70;;;;;;;-145.69;100.00;52066.16;5053836;28;20235;-89
2023/06/02 01:53:33;;;;;;;8.70;3.50;;;;;;;-145.69;100.00;52052.28;5074337;28;20286;-89
2023/06/02 01:56:03;;;;;;;8.10;3.77;;;;;;;-145.69;100.00;52083.97;5076746;28;20231;-85
2023/06/02 01:58:31;;;;;;;9.13;3.87;;;;;;;-145.69;100.00;52048.31;5077321;28;20595;-87
2023/06/02 02:01:02;;;;;;;8.17;3.93;;;;;;;-145.69;100.00;52062.19;5077815;28;20199;-89
2023/06/02 02:03:37;;;;;;;8.03;3.97;;;;;;;-145.69;100.00;52074.06;5077368;28;20203;-89
2023/06/02 02:06:21;;;;;;;7.47;3.40;;;;;;;-145.69;100.00;52062.19;5077404;28;20197;-89
2023/06/02 02:08:53;;;;;;;9.00;3.73;;;;;;;-145.69;100.00;52076.03;5077119;28;20233;-88
2023/06/02 02:11:29;;;;;;;8.37;3.73;;;;;;;-145.69;100.00;52083.97;5076916;28;20301;-87
2023/06/02 02:13:56;;;;;;;8.33;4.00;;;;;;;-145.69;100.00;52083.97;5073548;28;20195;-88
2023/06/02 02:16:23;;;;;;;6.60;3.70;;;;;;;-145.69;100.00;52056.25;5057443;28;20195;-88
2023/06/02 02:18:52;;;;;;;10.30;3.30;;;;;;;-145.69;100.00;52052.28;5057024;28;20222;-88
2023/06/02 02:21:31;;;;;;;8.77;3.67;;;;;;;-145.69;100.00;52064.16;5056985;28;20192;-87
2023/06/02 02:24:06;;;;;;;6.83;3.97;;;;;;;-145.69;100.00;52074.06;5057307;28;20699;-88
2023/06/02 02:26:36;;;;;;;6.80;4.03;;;;;;;-145.69;100.00;52076.03;5057684;28;20264;-89
2023/06/02 02:29:09;;;;;;;8.82;4.30;;;;;;;-145.69;100.00;52056.25;5056248;28;20546;-87
2023/06/02 02:31:37;;;;;;;8.27;4.17;;;;;;;-145.69;100.00;52080.00;5056760;28;20704;-88
2023/06/02 02:34:06;;;;;;;12.90;4.10;;;;;;;-145.69;100.00;52044.38;5056640;28;20199;-84
2023/06/02 02:36:44;;;;;;;12.73;4.00;;;;;;;-145.69;100.00;52070.09;5056804;28;20200;-87
2023/06/02 02:39:20;;;;;;;9.23;4.83;;;;;;;-145.69;100.00;52052.28;5074437;28;20286;-88
2023/06/02 02:41:49;;;;;;;8.77;3.60;;;;;;;-145.69;100.00;52091.88;5076389;28;20209;-85
2023/06/02 02:44:20;;;;;;;11.63;4.07;;;;;;;-145.69;100.00;52083.97;5076493;28;20210;-87
2023/06/02 02:46:48;;;;;;;9.73;3.77;;;;;;;-145.69;100.00;52089.91;5074077;28;20248;-87
2023/06/02 02:49:15;;;;;;;7.50;4.30;;;;;;;-145.69;100.00;52056.25;5052530;28;20747;-87
2023/06/02 02:51:45;;;;;;;9.07;4.23;;;;;;;-145.69;100.00;52034.47;5076297;28;20215;-86
2023/06/02 02:54:11;;;;;;;8.30;4.10;;;;;;;-145.69;100.00;52056.25;5075708;28;20195;-86
2023/06/02 02:56:39;;;;;;;7.30;3.93;;;;;;;-145.69;100.00;52085.94;5076468;28;20206;-89
2023/06/02 02:59:12;;;;;;;12.93;4.67;;;;;;;-145.69;100.00;52080.00;5076548;28;20561;-88
2023/06/02 03:01:43;;;;;;;9.13;4.10;;;;;;;-145.69;100.00;52087.94;5075094;28;20199;-88
2023/06/02 03:04:18;;;;;;;7.70;4.17;;;;;;;-145.69;100.00;52076.03;5056364;28;20199;-88
2023/06/02 03:06:48;;;;;;;9.57;3.90;;;;;;;-145.69;100.00;52080.00;5056099;28;20205;-87
2023/06/02 03:09:22;;;;;;;8.25;4.43;;;;;;;-145.69;100.00;52095.84;5054918;28;20482;-87
2023/06/02 03:11:51;;;;;;;10.70;4.27;;;;;;;-145.69;100.00;52091.88;5055824;28;20593;-88
2023/06/02 03:14:19;;;;;;;12.80;4.80;;;;;;;-145.69;100.00;52068.13;5056080;28;20254;-87
2023/06/02 03:16:48;;;;;;;8.73;4.13;;;;;;;-145.69;100.00;52087.94;5056379;28;20274;-89
2023/06/02 03:19:16;;;;;;;9.63;4.07;;;;;;;-145.69;100.00;52119.63;5056373;28;20207;-88
2023/06/02 03:21:45;;;;;;;7.80;3.93;;;;;;;-145.69;100.00;52107.72;5055797;28;20211;-88
2023/06/02 03:24:19;;;;;;;13.43;4.17;;;;;;;-145.69;100.00;52097.84;5056260;28;20207;-87
2023/06/02 03:26:46;;;;;;;6.47;3.70;;;;;;;-145.69;100.00;52087.94;5055806;28;20322;-88
2023/06/02 03:29:16;;;;;;;9.63;4.00;;;;;;;-145.69;100.00;52099.81;5055853;28;20251;-88
2023/06/02 03:31:50;;;;;;;12.83;4.23;;;;;;;-145.69;100.00;52089.91;5055973;28;20203;-87
2023/06/02 03:34:20;;;;;;;9.53;4.40;;;;;;;-145.69;100.00;52101.78;5055648;28;20202;-88
2023/06/02 03:36:51;;;;;;;10.50;4.30;;;;;;;-145.69;100.00;52103.78;5055822;28;20647;-87
2023/06/02 03:39:21;;;;;;;9.50;4.77;;;;;;;-145.69;100.00;52111.69;5060798;28;20202;-88
2023/06/02 03:41:47;;;;;;;6.60;4.17;;;;;;;-145.69;100.00;52080.00;5040904;28;20229;-86
2023/06/02 03:44:18;;;;;;;8.27;4.43;;;;;;;-145.69;100.00;52103.78;5052193;28;20199;-87
2023/06/02 03:46:49;;;;;;;9.37;4.90;;;;;;;-145.69;100.00;52083.97;5055317;28;20277;-87
2023/06/02 03:49:19;;;;;;;8.07;4.10;;;;;;;-145.69;100.00;52123.56;5054912;28;20263;-88
2023/06/02 03:51:49;;;;;;;8.33;4.63;;;;;;;-145.69;100.00;52087.94;5066059;28;20203;-87
2023/06/02 03:54:19;;;;;;;11.67;4.37;;;;;;;-145.69;100.00;52089.91;5074963;28;20199;-87
2023/06/02 03:56:57;;;;;;;11.33;4.67;;;;;;;-145.69;100.00;52119.63;5075216;28;20211;-87
2023/06/02 03:59:28;;;;;;;12.60;5.17;;;;;;;-145.69;100.00;52080.00;5075076;28;20210;-87
2023/06/02 04:01:59;;;;;;;8.80;4.33;;;;;;;-145.69;100.00;52072.09;5054762;28;20200;-87
2023/06/02 04:04:25;;;;;;;9.87;4.63;;;;;;;-145.69;100.00;52054.25;5056262;28;20207;-86
2023/06/02 04:06:53;;;;;;;8.90;4.77;;;;;;;-145.69;100.00;52062.19;5057998;28;20208;-87
2023/06/02 04:09:23;;;;;;;8.87;3.83;;;;;;;-145.69;100.00;52097.84;5074375;28;20226;-87
2023/06/02 04:11:50;;;;;;;10.67;4.90;;;;;;;-145.69;100.00;52083.97;5056066;28;20231;-87
2023/06/02 04:14:20;;;;;;;9.87;4.37;;;;;;;-145.69;100.00;52101.78;5054205;28;20235;-87
2023/06/02 04:16:48;;;;;;;9.33;4.33;;;;;;;-145.69;100.00;52080.00;5054685;28;20203;-87
2023/06/02 04:19:16;;;;;;;10.90;4.13;;;;;;;-145.69;100.00;52099.81;5053589;28;20246;-87
2023/06/02 04:21:46;;;;;;;13.33;5.00;;;;;;;-145.69;100.00;52074.06;5054438;28;20191;-87
2023/06/02 04:24:14;;;;;;;10.50;4.23;;;;;;;-145.69;100.00;52097.84;5054731;28;20554;-87
2023/06/02 04:26:43;;;;;;;9.57;4.57;;;;;;;-145.69;100.00;52111.69;5054118;28;20605;-86
2023/06/02 04:29:12;;;;;;;12.70;6.00;;;;;;;-145.69;100.00;52074.06;5053076;28;20451;-86
2023/06/02 04:31:42;;;;;;;8.97;4.53;;;;;;;-145.69;100.00;52082.00;5054363;28;20215;-87
2023/06/02 04:34:12;;;;;;;8.73;4.70;;;;;;;-145.69;100.00;52093.88;5071982;28;20202;-87
2023/06/02 04:36:46;;;;;;;7.67;4.30;;;;;;;-145.69;100.00;52091.88;5054108;28;20211;-87
2023/06/02 04:39:21;;;;;;;8.20;4.23;;;;;;;-145.69;100.00;52119.63;5054325;28;20294;-86
2023/06/02 04:41:48;;;;;;;7.50;4.23;;;;;;;-145.69;100.00;52123.56;5054204;28;20195;-87
2023/06/02 04:44:16;;;;;;;10.97;4.63;;;;;;;-145.69;100.00;52074.06;5057693;28;20199;-88
2023/06/02 04:46:43;;;;;;;9.60;4.27;;;;;;;-145.69;100.00;52080.00;5070552;28;20674;-88
2023/06/02 04:49:15;;;;;;;7.27;4.37;;;;;;;-145.69;100.00;52111.69;5033935;28;20236;-87
2023/06/02 04:51:46;;;;;;;10.67;4.47;;;;;;;-145.69;100.00;52062.19;5034634;28;20724;-87
2023/06/02 04:54:15;;;;;;;11.60;4.83;;;;;;;-145.69;100.00;52068.13;5034778;28;20196;-88
2023/06/02 04:56:46;;;;;;;8.47;4.50;;;;;;;-145.69;100.00;52101.78;5043107;28;20191;-87
2023/06/02 04:59:17;;;;;;;8.27;4.67;;;;;;;-145.69;100.00;52099.81;5074203;28;20206;-87
2023/06/02 05:01:46;;;;;;;8.13;4.20;;;;;;;-145.69;100.00;52085.94;5074134;28;20195;-87
2023/06/02 05:04:13;;;;;;;12.27;4.77;;;;;;;-145.69;100.00;52099.81;5073979;28;20199;-86
2023/06/02 05:06:39;;;;;;;7.33;4.27;;;;;;;-145.69;100.00;52095.84;5069990;28;20195;-87
2023/06/02 05:09:07;;;;;;;7.27;4.20;;;;;;;-145.69;100.00;52105.75;5054078;28;20237;-88
2023/06/02 05:11:34;;;;;;;7.27;4.37;;;;;;;-145.69;100.00;52085.94;5054091;28;20203;-87
2023/06/02 05:14:00;;;;;;;11.23;4.50;;;;;;;-145.69;100.00;52082.00;5053939;28;20199;-88
2023/06/02 05:16:29;;;;;;;11.90;4.80;;;;;;;-145.69;100.00;52074.06;5053925;28;20562;-87
2023/06/02 05:18:56;;;;;;;7.33;4.40;;;;;;;-145.69;100.00;52064.16;5053482;28;20650;-87
2023/06/02 05:21:22;;;;;;;8.07;4.20;;;;;;;-145.69;100.00;52052.28;5053567;28;20294;-86
2023/06/02 05:23:49;;;;;;;8.70;4.83;;;;;;;-145.69;100.00;52107.72;5053368;28;20242;-86
2023/06/02 05:26:17;;;;;;;14.37;4.43;;;;;;;-145.69;100.00;52066.16;5053510;28;20717;-86
2023/06/02 05:28:44;;;;;;;9.23;4.37;;;;;;;-145.69;100.00;52050.31;5053356;28;20291;-86
2023/06/02 05:31:10;;;;;;;6.83;4.00;;;;;;;-145.69;100.00;52056.25;5053680;28;20230;-87
2023/06/02 05:33:37;;;;;;;9.20;4.37;;;;;;;-145.69;100.00;52070.09;5064236;28;20658;-87
2023/06/02 05:36:04;;;;;;;9.87;4.57;;;;;;;-145.69;100.00;52020.59;5073534;28;20229;-87
2023/06/02 05:38:30;;;;;;;16.65;4.72;;;;;;;-145.69;100.00;52000.81;5073803;28;20573;-88
2023/06/02 05:40:57;;;;;;;9.83;4.70;;;;;;;-145.69;100.00;52008.72;5073346;28;20198;-88
2023/06/02 05:43:25;;;;;;;7.45;4.40;;;;;;;-145.69;100.00;51965.16;5073066;28;20222;-89
2023/06/02 05:45:51;;;;;;;8.88;4.03;;;;;;;-145.69;97.92;51988.91;5073576;28;20198;-89
2023/06/02 05:48:18;;;;;;;10.52;4.40;;;;;;;-145.69;95.52;52030.50;5071414;28;20431;-89
2023/06/02 05:50:44;;;;;;;16.23;4.45;;;;;;;-145.69;93.24;51984.97;5073662;28;20589;-89
2023/06/02 05:53:11;;;;;;;7.95;3.78;;;;;;;-145.69;94.28;52024.56;5072892;28;20198;-89
2023/06/02 05:55:38;;;;;;;5.50;3.60;;;;;;;-145.69;91.06;51975.06;5073175;28;20203;-86
2023/06/02 05:58:06;;;;;;;6.55;3.75;;;;;;;-145.69;91.32;52008.72;5072704;28;20202;-87
2023/06/02 06:00:34;;;;;;;7.30;3.95;;;;;;;-145.69;88.94;52014.66;5073615;28;20236;-86
2023/06/02 06:03:01;;;;;;;9.27;4.05;;;;;;;-145.69;95.85;52008.72;5065636;28;20203;-86
2023/06/02 06:05:27;;;;;;;7.60;4.18;;;;;;;-145.69;96.55;51994.88;5053571;28;20202;-86
2023/06/02 06:07:54;;;;;;;6.00;3.85;;;;;;;-145.69;97.75;52004.75;5053220;28;20208;-87
2023/06/02 06:10:21;;;;;;;11.18;4.18;;;;;;;-145.69;97.88;52016.66;5053199;28;20223;-87
2023/06/02 06:12:47;;;;;;;6.90;4.03;;;;;;;-145.69;97.30;51951.28;5052637;28;20282;-88
2023/06/02 06:15:14;;;;;;;7.30;3.90;;;;;;;-145.69;96.77;51998.81;5053403;28;20362;-88
2023/06/02 06:17:50;;;;;;;6.97;4.07;;;;;;;-145.69;91.27;52000.81;5059635;28;20622;-86
2023/06/02 06:20:17;;;;;;;7.78;3.88;;;;;;;-145.69;92.37;52000.81;5073145;28;20208;-85
2023/06/02 06:22:44;;;;;;;7.38;4.25;;;;;;;-145.69;90.65;51996.84;5073519;28;20207;-86
2023/06/02 06:25:11;;;;;;;10.13;4.57;;;;;;;-145.69;92.99;52020.59;5073425;28;20203;-87
2023/06/02 06:27:38;;;;;;;6.18;4.22;;;;;;;-145.69;94.46;52018.63;5072144;28;20544;-86
2023/06/02 06:30:06;;;;;;;5.85;3.63;;;;;;;-145.69;90.64;51994.88;5073264;28;20296;-85
2023/06/02 06:32:33;;;;;;;7.63;3.95;;;;;;;-145.69;89.62;51996.84;5072099;28;20217;-87
2023/06/02 06:35:01;;;;;;;11.07;5.03;;;;;;;-145.69;82.77;51988.91;5072903;28;20543;-84
2023/06/02 06:37:28;;;;;;;8.55;4.32;;;;;;;-145.69;82.99;52022.59;5071923;28;20196;-84
2023/06/02 06:39:54;;;;;;;7.65;4.00;;;;;;;-145.69;85.41;52022.59;5076114;28;20736;-85
2023/06/02 06:42:22;;;;;;;13.38;4.95;;;;;;;-145.69;85.85;52038.44;5058606;28;20200;-89
2023/06/02 06:44:49;;;;;;;8.23;4.35;;;;;;;-145.69;85.15;52012.69;5056682;28;20199;-86
2023/06/02 06:47:16;;;;;;;10.10;4.78;;;;;;;-145.69;87.53;51977.03;5057791;28;20206;-88
2023/06/02 06:49:45;;;;;;;9.20;4.40;;;;;;;-145.69;86.56;52012.69;5076043;28;20242;-87
2023/06/02 06:52:13;;;;;;;10.60;4.90;;;;;;;-145.69;84.88;51984.97;5076025;28;20202;-85
2023/06/02 06:54:39;;;;;;;8.95;4.15;;;;;;;-145.69;83.95;51979.03;5076291;28;20210;-86
2023/06/02 06:57:06;;;;;;;9.40;4.75;;;;;;;-145.69;86.16;51977.03;5068362;28;20203;-86
2023/06/02 06:59:33;;;;;;;11.00;4.68;;;;;;;-145.69;84.00;51990.91;5056376;28;20191;-84
2023/06/02 07:01:59;;;;;;;9.50;4.72;;;;;;;-145.69;83.59;52036.44;5055592;28;20753;-85
2023/06/02 07:04:26;;;;;;;9.77;5.05;;;;;;;-145.69;85.38;52004.75;5073894;28;20209;-84
2023/06/02 07:06:52;;;;;;;9.48;4.72;;;;;;;-145.69;85.48;52010.69;5075601;28;20199;-87
2023/06/02 07:09:20;;;;;;;9.43;4.80;;;;;;;-145.69;87.30;52022.59;5075744;28;20199;-81
2023/06/02 07:11:47;;;;;;;9.98;5.43;;;;;;;-145.69;84.04;52022.59;5066156;28;20691;-86
2023/06/02 07:14:13;;;;;;;11.25;5.40;;;;;;;-145.69;83.35;52000.81;5074498;28;20240;-84
2023/06/02 07:16:40;;;;;;;9.23;4.60;;;;;;;-145.69;86.33;51981.00;5075554;28;20215;-87
2023/06/02 07:19:06;;;;;;;11.13;5.05;;;;;;;-145.69;87.03;52000.81;5056781;28;20294;-87
2023/06/02 07:21:32;;;;;;;8.90;4.70;;;;;;;-145.69;82.79;51969.13;5055670;28;20219;-88
2023/06/02 07:23:59;;;;;;;14.40;4.80;;;;;;;-145.69;82.13;51996.84;5055850;28;20203;-87
2023/06/02 07:26:27;;;;;;;13.95;5.32;;;;;;;-145.69;82.63;52004.75;5055784;28;20204;-87
2023/06/02 07:28:53;;;;;;;10.15;5.32;;;;;;;-145.69;81.09;52018.63;5055489;28;20206;-85
2023/06/02 07:31:20;;;;;;;11.18;5.20;;;;;;;-145.69;78.77;51977.03;5055604;28;20241;-84
2023/06/02 07:33:46;;;;;;;10.82;5.32;;;;;;;-145.69;80.44;52000.81;5054089;28;20195;-85
2023/06/02 07:36:13;;;;;;;9.82;5.25;;;;;;;-145.69;79.12;51994.88;5055519;28;20206;-84
2023/06/02 07:38:39;;;;;;;14.68;5.20;;;;;;;-145.69;80.86;51984.97;5054997;28;20195;-85
2023/06/02 07:41:06;;;;;;;10.32;5.45;;;;;;;-145.69;80.88;51996.84;5054699;28;20215;-88
2023/06/02 07:43:34;;;;;;;8.95;5.72;;;;;;;-145.69;80.92;51981.00;5054088;28;20200;-85
2023/06/02 07:46:01;;;;;;;13.18;4.75;;;;;;;-145.69;81.04;51990.91;5054317;28;20207;-84
2023/06/02 07:48:27;;;;;;;8.15;4.97;;;;;;;-145.69;76.67;51967.13;5054100;28;20203;-85
2023/06/02 07:50:53;;;;;;;9.73;5.22;;;;;;;-145.69;80.10;51971.09;5054539;28;20297;-85
2023/06/02 07:53:20;;;;;;;11.23;5.28;;;;;;;-145.69;80.31;51953.28;5054985;28;20208;-87
2023/06/02 07:55:46;;;;;;;11.88;5.13;;;;;;;-145.69;77.05;51998.81;5066718;28;20206;-86
2023/06/02 07:58:13;;;;;;;9.05;5.00;;;;;;;-145.69;79.64;51984.97;5074831;28;20211;-86
2023/06/02 08:00:41;;;;;;;8.98;4.97;;;;;;;-145.69;74.38;52000.81;5075062;28;20210;-85
2023/06/02 08:03:08;;;;;;;11.75;4.75;;;;;;;-145.69;78.31;51981.00;5059608;28;20203;-87
2023/06/02 08:05:35;;;;;;;12.18;4.93;;;;;;;-145.69;70.41;51971.09;5064170;28;20192;-83
2023/06/02 08:08:01;;;;;;;9.75;4.90;;;;;;;-145.69;70.55;51973.06;5054562;28;20253;-84
2023/06/02 08:10:30;;;;;;;9.45;5.50;;;;;;;-145.69;68.73;51981.00;5054758;28;20223;-88
2023/06/02 08:12:57;;;;;;;11.85;5.22;;;;;;;-145.69;70.59;51977.03;5053615;28;20643;-89
2023/06/02 08:15:23;;;;;;;15.07;5.90;;;;;;;-145.69;72.21;51953.28;5054926;28;20195;-91
2023/06/02 08:17:51;;;;;;;8.20;4.72;;;;;;;-145.69;70.55;51965.16;5053813;28;20712;-88
2023/06/02 08:20:18;;;;;;;16.30;5.10;;;;;;;-145.69;73.57;51973.06;5055128;28;20230;-88
2023/06/02 08:22:45;;;;;;;11.50;5.57;;;;;;;-145.69;73.19;51961.19;5054940;28;20657;-84
2023/06/02 08:25:12;;;;;;;7.43;4.35;;;;;;;-145.69;71.52;51967.13;5054583;28;20249;-88
2023/06/02 08:27:38;;;;;;;18.33;5.97;;;;;;;-145.69;68.56;51967.13;5034473;28;20295;-85
2023/06/02 08:30:05;;;;;;;12.10;5.40;;;;;;;-145.69;68.96;51977.03;5033980;28;20677;-85
2023/06/02 08:32:32;;;;;;;11.82;4.88;;;;;;;-145.69;73.55;51992.88;5034409;28;20242;-85
2023/06/02 08:35:01;;;;;;;8.90;5.13;;;;;;;-145.69;67.53;51988.91;5032594;28;20287;-86
2023/06/02 08:37:29;;;;;;;9.63;5.13;;;;;;;-145.69;67.68;51959.22;5034531;28;20219;-87
2023/06/02 08:39:56;;;;;;;12.23;5.07;;;;;;;-145.69;63.53;51941.41;5034503;28;20211;-86
2023/06/02 08:42:23;;;;;;;11.85;4.97;;;;;;;-145.69;62.69;51961.19;5033978;28;20674;-87
2023/06/02 08:44:50;;;;;;;9.90;5.32;;;;;;;-145.69;65.31;51984.97;5034329;28;20230;-88
2023/06/02 08:47:19;;;;;;;12.90;5.03;;;;;;;-145.69;62.41;51925.56;5034566;28;20206;-89
2023/06/02 08:49:46;;;;;;;10.40;5.40;;;;;;;-145.69;60.58;51965.16;5041485;28;20567;-89
2023/06/02 08:52:16;;;;;;;9.65;5.93;;;;;;;-145.69;64.59;51927.53;5049119;28;20234;-88
2023/06/02 08:54:44;;;;;;;13.15;5.43;;;;;;;-145.69;64.09;51953.28;5053848;28;20199;-88
2023/06/02 08:57:12;;;;;;;8.90;5.53;;;;;;;-145.69;66.26;51971.09;5053904;28;20260;-87
2023/06/02 08:59:40;;;;;;;10.75;5.45;;;;;;;-145.69;63.67;51921.59;5054135;28;20207;-90
2023/06/02 09:02:07;;;;;;;9.68;5.07;;;;;;;-145.69;60.54;51959.22;5054346;28;20202;-88
2023/06/02 09:04:33;;;;;;;10.63;5.80;;;;;;;-145.69;60.14;51939.41;5071166;28;20198;-85
2023/06/02 09:07:22;;;;;;;9.32;5.20;;;;;;;-145.69;62.58;51967.13;5073817;28;20460;-89
2023/06/02 09:09:51;;;;;;;9.90;5.40;;;;;;;-145.69;63.49;51973.06;5074346;28;20294;-90
2023/06/02 09:12:18;;;;;;;11.23;5.25;;;;;;;-145.69;63.26;51947.34;5073254;28;20276;-83
2023/06/02 09:14:46;;;;;;;10.23;5.38;;;;;;;-145.69;60.80;51935.47;5074026;28;20207;-86
2023/06/02 09:17:24;;;;;;;10.70;5.85;;;;;;;-145.69;62.30;51949.31;5073935;28;20203;-85
2023/06/02 09:19:52;;;;;;;12.18;5.60;;;;;;;-145.69;66.29;51957.25;5073914;28;20273;-89
2023/06/02 09:22:20;;;;;;;9.70;4.72;;;;;;;-145.69;66.72;51977.03;5073734;28;20213;-91
2023/06/02 09:24:49;;;;;;;11.13;5.38;;;;;;;-145.69;65.43;51921.59;5073865;28;20218;-88
2023/06/02 09:27:17;;;;;;;13.25;5.55;;;;;;;-145.69;60.30;51925.56;5074031;28;20202;-89
2023/06/02 09:29:47;;;;;;;9.45;5.05;;;;;;;-145.69;62.15;51921.59;5074047;28;20206;-90
2023/06/02 09:32:15;;;;;;;10.07;5.50;;;;;;;-145.69;62.37;51973.06;5073866;28;20855;-90
2023/06/02 09:34:45;;;;;;;11.65;5.70;;;;;;;-145.69;61.78;51941.41;5073353;28;20209;-91
2023/06/02 09:37:13;;;;;;;10.18;5.85;;;;;;;-145.69;59.11;51969.13;5073444;28;20669;-87
2023/06/02 09:39:43;;;;;;;12.73;5.10;;;;;;;-145.69;59.38;51933.47;5057939;28;20678;-86
2023/06/02 09:42:10;;;;;;;9.00;5.30;;;;;;;-145.69;60.94;51935.47;5053907;28;20226;-87
2023/06/02 09:44:37;;;;;;;10.27;5.05;;;;;;;-145.69;59.83;51911.69;5053766;28;20199;-85
2023/06/02 09:47:18;;;;;;;15.50;5.20;;;;;;;-145.69;56.04;51907.72;5053527;28;20223;-84
2023/06/02 09:49:47;;;;;;;13.10;4.90;;;;;;;-145.69;58.41;51907.72;5053679;28;20238;-82
2023/06/02 09:52:18;;;;;;;9.48;4.78;;;;;;;-145.69;54.53;51933.47;5053510;28;20627;-89
2023/06/02 09:54:47;;;;;;;8.73;5.07;;;;;;;-145.69;52.97;51915.66;5053284;28;20195;-87
2023/06/02 09:57:15;;;;;;;9.45;5.82;;;;;;;-145.69;59.14;51949.31;5052645;28;20574;-87
2023/06/02 09:59:42;;;;;;;15.27;5.60;;;;;;;-145.69;57.47;51923.56;5052588;28;20203;-84
2023/06/02 10:02:10;;;;;;;8.70;5.15;;;;;;;-145.69;58.46;51905.75;5053474;28;20206;-86
2023/06/02 10:04:37;;;;;;;13.63;5.15;;;;;;;-145.69;62.23;51905.75;5053580;28;20196;-86
2023/06/02 10:07:15;;;;;;;12.38;4.97;;;;;;;-145.69;60.39;51953.28;5053237;28;20235;-82
2023/06/02 10:09:58;;;;;;;14.63;5.50;;;;;;;-145.69;58.43;51941.41;5053504;28;20203;-89
2023/06/02 10:12:43;;;;;;;11.68;6.38;;;;;;;-145.69;55.11;51917.63;5054747;28;20245;-82
2023/06/02 10:15:32;;;;;;;14.65;5.38;;;;;;;-145.69;58.63;51945.34;5075681;28;20652;-85
2023/06/02 10:18:17;;;;;;;10.55;5.28;;;;;;;-145.69;54.47;51913.69;5078356;28;20194;-88
2023/06/02 10:20:59;;;;;;;12.52;5.18;;;;;;;-145.69;56.56;51933.47;5079274;28;20234;-85
2023/06/02 10:23:37;;;;;;;11.63;4.95;;;;;;;-145.69;53.75;51921.59;5077393;28;20203;-87
2023/06/02 10:26:21;;;;;;;9.23;4.97;;;;;;;-145.69;51.81;51891.88;5076564;28;20202;-86
2023/06/02 10:28:48;;;;;;;9.27;5.25;;;;;;;-145.69;51.05;51917.63;5078358;28;20222;-88
2023/06/02 10:31:16;;;;;;;11.00;5.22;;;;;;;-145.69;55.23;51923.56;5078844;28;20226;-85
2023/06/02 10:33:44;;;;;;;8.80;5.20;;;;;;;-145.69;57.53;51921.59;5069866;28;20200;-90
2023/06/02 10:36:12;;;;;;;9.88;5.28;;;;;;;-145.69;51.50;51907.72;5059249;28;20207;-89
2023/06/02 10:38:38;;;;;;;10.25;4.72;;;;;;;-145.69;55.89;51915.66;5052656;28;20195;-87
2023/06/02 10:41:06;;;;;;;9.27;4.88;;;;;;;-145.69;54.38;51874.06;5049407;28;20206;-87
2023/06/02 10:43:33;;;;;;;8.73;4.60;;;;;;;-145.69;52.22;51909.72;5052583;28;20187;-85
2023/06/02 10:46:20;;;;;;;9.70;4.90;;;;;;;-145.69;55.93;51909.72;5053276;28;20658;-85
2023/06/02 10:48:47;;;;;;;9.43;5.00;;;;;;;-145.69;52.32;51915.66;5052602;28;20622;-84
2023/06/02 10:51:13;;;;;;;9.65;4.97;;;;;;;-145.69;50.67;51882.00;5069797;28;20299;-87
2023/06/02 10:54:15;;;;;;;13.18;4.53;;;;;;;-145.69;51.75;51891.88;5066001;28;20795;-86
2023/06/02 10:56:47;;;;;;;9.57;5.37;;;;;;;-145.69;54.51;51907.72;5048588;28;20442;-89
2023/06/02 10:59:32;;;;;;;9.60;5.50;;;;;;;-145.69;50.61;51889.91;5036348;28;20513;-87
2023/06/02 11:01:59;;;;;;;15.13;5.47;;;;;;;-145.69;51.37;51895.84;5038550;28;20682;-85
2023/06/02 11:04:31;;;;;;;8.35;4.90;;;;;;;-145.69;51.32;51885.94;5053806;28;20207;-85
2023/06/02 11:07:21;;;;;;;10.70;5.40;;;;;;;-145.69;53.38;51887.94;5047495;28;20444;-85
2023/06/02 11:09:50;;;;;;;9.00;5.32;;;;;;;-145.69;50.76;51870.13;5049361;28;20206;-90
2023/06/02 11:12:18;;;;;;;12.15;5.45;;;;;;;-145.69;51.34;51883.97;5046753;28;20691;-83
2023/06/02 11:15:16;;;;;;;11.10;5.15;;;;;;;-145.69;48.72;51885.94;5065477;28;20506;-87
2023/06/02 11:17:43;;;;;;;13.15;5.68;;;;;;;-145.69;47.86;51889.91;5069043;28;20221;-86
2023/06/02 11:20:10;;;;;;;9.80;5.45;;;;;;;-145.69;47.98;51901.78;5067910;28;20314;-84